createdAt,value
2018-12-14T00:01:07.324Z,46.84
2018-12-14T00:03:36.502Z,46.47
2018-12-14T00:06:05.668Z,46.64
2018-12-14T00:08:34.605Z,46.79
2018-12-14T00:11:03.574Z,46.44
2018-12-14T00:13:32.469Z,47.14
2018-12-14T00:16:01.913Z,45.87
2018-12-14T00:18:30.855Z,46.76
2018-12-14T00:21:00.504Z,45.46
2018-12-14T00:23:29.664Z,45.57
2018-12-14T00:25:59.585Z,46.55
2018-12-14T00:28:28.547Z,45.21
2018-12-14T00:30:57.553Z,46.81
2018-12-14T00:33:27.096Z,46.69
2018-12-14T00:35:56.539Z,46.45
2018-12-14T00:38:25.318Z,46.89
2018-12-14T00:40:55.399Z,47.12
2018-12-14T00:43:24.794Z,46.45
2018-12-14T00:45:54.325Z,46.58
2018-12-14T00:48:23.168Z,46.63
2018-12-14T00:50:52.681Z,46.63
2018-12-14T00:53:22.235Z,46.93
2018-12-14T00:55:51.804Z,44.73
2018-12-14T00:58:21.062Z,45.59
2018-12-14T01:00:49.843Z,46.30
2018-12-14T01:03:18.900Z,46.33
2018-12-14T01:05:47.961Z,46.42
2018-12-14T01:08:17.366Z,46.75
2018-12-14T01:10:46.977Z,46.99
2018-12-14T01:13:16.217Z,46.74
2018-12-14T01:15:45.152Z,47.23
2018-12-14T01:18:14.814Z,45.21
2018-12-14T01:20:43.620Z,44.31
2018-12-14T01:23:12.521Z,45.48
2018-12-14T01:25:42.134Z,46.32
2018-12-14T01:28:11.438Z,46.15
2018-12-14T01:30:40.281Z,46.70
2018-12-14T01:33:10.286Z,46.47
2018-12-14T01:35:39.333Z,46.42
2018-12-14T01:38:08.177Z,45.70
2018-12-14T01:40:37.304Z,46.67
2018-12-14T01:43:06.198Z,46.20
2018-12-14T01:45:35.187Z,44.83
2018-12-14T01:48:04.967Z,46.22
2018-12-14T01:50:34.467Z,46.53
2018-12-14T01:53:03.489Z,46.66
2018-12-14T01:55:32.448Z,46.10
2018-12-14T01:58:02.195Z,46.64
2018-12-14T02:00:31.300Z,46.32
2018-12-14T02:03:00.655Z,46.31
2018-12-14T02:05:29.952Z,46.44
2018-12-14T02:07:59.071Z,45.78
2018-12-14T02:10:28.140Z,46.43
2018-12-14T02:12:57.369Z,46.68
2018-12-14T02:15:26.171Z,46.05
2018-12-14T02:17:55.936Z,46.41
2018-12-14T02:20:25.472Z,46.88
2018-12-14T02:22:54.292Z,46.63
2018-12-14T02:25:23.245Z,46.86
2018-12-14T02:27:52.689Z,46.54
2018-12-14T02:30:33.048Z,46.83
2018-12-14T02:33:01.980Z,46.15
2018-12-14T02:35:30.992Z,46.27
2018-12-14T02:38:00.687Z,46.23
2018-12-14T02:40:30.196Z,46.34
2018-12-14T02:42:59.986Z,45.51
2018-12-14T02:45:29.386Z,43.75
2018-12-14T02:47:58.392Z,46.08
2018-12-14T02:50:27.269Z,46.29
2018-12-14T02:52:57.584Z,46.23
2018-12-14T02:55:26.789Z,46.71
2018-12-14T02:57:55.815Z,46.22
2018-12-14T03:00:24.634Z,46.23
2018-12-14T03:02:54.821Z,46.72
2018-12-14T03:05:24.403Z,46.45
2018-12-14T03:07:53.307Z,46.07
2018-12-14T03:10:22.163Z,45.22
2018-12-14T03:12:51.204Z,45.97
2018-12-14T03:15:21.075Z,46.02
2018-12-14T03:17:50.523Z,46.20
2018-12-14T03:20:20.316Z,46.27
2018-12-14T03:22:50.297Z,45.75
2018-12-14T03:25:19.379Z,45.83
2018-12-14T03:27:48.531Z,46.36
2018-12-14T03:30:17.491Z,46.02
2018-12-14T03:32:46.439Z,46.53
2018-12-14T03:35:16.258Z,46.52
2018-12-14T03:37:45.432Z,46.15
2018-12-14T03:40:14.306Z,46.37
2018-12-14T03:42:43.333Z,46.29
2018-12-14T03:45:12.144Z,43.85
2018-12-14T03:47:41.306Z,44.46
2018-12-14T03:52:43.252Z,45.61
2018-12-14T03:55:12.237Z,45.96
2018-12-14T03:57:41.705Z,45.68
2018-12-14T04:00:11.464Z,46.02
2018-12-14T04:02:40.332Z,46.43
2018-12-14T04:05:09.302Z,46.64
2018-12-14T04:07:38.167Z,46.46
2018-12-14T04:10:07.806Z,44.80
2018-12-14T04:12:41.478Z,45.47
2018-12-14T04:15:07.840Z,45.18
2018-12-14T04:17:36.787Z,45.53
2018-12-14T04:20:06.008Z,46.01
2018-12-14T04:22:35.411Z,46.26
2018-12-14T04:25:04.482Z,46.08
2018-12-14T04:27:34.060Z,45.99
2018-12-14T04:30:02.998Z,46.04
2018-12-14T04:32:31.956Z,46.11
2018-12-14T04:35:01.586Z,44.60
2018-12-14T04:37:31.120Z,46.08
2018-12-14T04:40:00.167Z,46.21
2018-12-14T04:42:30.975Z,45.65
2018-12-14T04:44:59.871Z,45.81
2018-12-14T04:47:28.785Z,46.41
2018-12-14T04:49:57.683Z,46.30
2018-12-14T04:52:26.434Z,46.35
2018-12-14T04:54:55.188Z,46.60
2018-12-14T04:57:23.969Z,45.27
2018-12-14T04:59:53.033Z,42.90
2018-12-14T05:02:22.533Z,43.16
2018-12-14T05:04:51.520Z,46.23
2018-12-14T05:07:20.335Z,45.33
2018-12-14T05:09:49.273Z,45.91
2018-12-14T05:12:18.138Z,45.84
2018-12-14T05:14:47.262Z,46.18
2018-12-14T05:17:16.555Z,45.50
2018-12-14T05:19:45.388Z,45.69
2018-12-14T05:22:14.856Z,46.01
2018-12-14T05:24:43.826Z,45.82
2018-12-14T05:27:13.238Z,46.26
2018-12-14T05:29:42.323Z,44.92
2018-12-14T05:32:11.109Z,45.74
2018-12-14T05:34:40.362Z,46.05
2018-12-14T05:37:09.339Z,46.28
2018-12-14T05:39:38.241Z,45.96
2018-12-14T05:42:07.429Z,45.50
2018-12-14T05:44:36.166Z,44.67
2018-12-14T05:47:05.325Z,45.74
2018-12-14T05:49:34.119Z,45.90
2018-12-14T05:52:03.419Z,45.39
2018-12-14T05:54:33.130Z,45.58
2018-12-14T05:57:02.245Z,44.71
2018-12-14T05:59:31.338Z,44.49
2018-12-14T06:02:00.166Z,45.30
2018-12-14T06:04:29.104Z,43.88
2018-12-14T06:06:58.414Z,45.11
2018-12-14T06:09:27.390Z,44.77
2018-12-14T06:11:56.581Z,45.38
2018-12-14T06:14:25.330Z,44.81
2018-12-14T06:16:54.189Z,44.70
2018-12-14T06:19:23.080Z,44.04
2018-12-14T06:21:51.822Z,42.36
2018-12-14T06:24:21.244Z,44.64
2018-12-14T06:26:50.023Z,45.05
2018-12-14T06:29:18.888Z,44.24
2018-12-14T06:31:47.827Z,44.57
2018-12-14T06:34:16.670Z,44.21
2018-12-14T06:36:45.590Z,43.41
2018-12-14T06:39:15.644Z,42.57
2018-12-14T06:41:45.101Z,43.59
2018-12-14T06:44:14.074Z,43.88
2018-12-14T06:46:43.405Z,43.98
2018-12-14T06:49:12.443Z,43.94
2018-12-14T06:51:41.485Z,43.33
2018-12-14T06:54:10.393Z,43.33
2018-12-14T06:56:40.082Z,43.69
2018-12-14T06:59:09.198Z,43.14
2018-12-14T07:01:38.704Z,41.16
2018-12-14T07:04:07.721Z,41.83
2018-12-14T07:06:36.614Z,42.29
2018-12-14T07:09:06.746Z,40.30
2018-12-14T07:11:36.366Z,40.39
2018-12-14T07:14:05.239Z,41.38
2018-12-14T07:16:34.319Z,41.82
2018-12-14T07:19:04.213Z,41.86
2018-12-14T07:21:33.355Z,42.73
2018-12-14T07:24:02.531Z,41.70
2018-12-14T07:26:31.392Z,42.11
2018-12-14T07:29:00.815Z,42.09
2018-12-14T07:31:30.793Z,43.33
2018-12-14T07:33:59.631Z,42.52
2018-12-14T07:36:28.762Z,44.09
2018-12-14T07:38:58.204Z,44.46
2018-12-14T07:41:28.367Z,42.42
2018-12-14T07:43:59.120Z,43.99
2018-12-14T07:46:29.076Z,44.24
2018-12-14T07:48:58.578Z,43.35
2018-12-14T07:51:27.435Z,43.61
2018-12-14T07:53:56.523Z,43.42
2018-12-14T07:56:25.655Z,44.32
2018-12-14T07:58:54.938Z,44.33
2018-12-14T08:01:24.170Z,44.60
2018-12-14T08:03:55.708Z,44.52
2018-12-14T08:09:17.049Z,44.96
2018-12-14T08:11:52.156Z,45.07
2018-12-14T08:14:21.858Z,44.99
2018-12-14T08:16:50.790Z,44.90
2018-12-14T08:19:21.200Z,45.99
2018-12-14T08:21:51.218Z,45.86
2018-12-14T08:24:20.451Z,45.78
2018-12-14T08:26:49.470Z,45.71
2018-12-14T08:30:49.759Z,45.87
2018-12-14T08:33:19.471Z,45.67
2018-12-14T08:35:48.914Z,46.06
2018-12-14T08:38:19.572Z,46.09
2018-12-14T08:40:58.401Z,46.21
2018-12-14T08:43:34.366Z,46.55
2018-12-14T08:46:03.461Z,46.37
2018-12-14T08:48:32.471Z,46.54
2018-12-14T08:51:03.753Z,46.47
2018-12-14T08:53:34.032Z,46.40
2018-12-14T08:56:04.198Z,46.85
2018-12-14T08:58:34.123Z,47.04
2018-12-14T09:01:05.294Z,46.84
2018-12-14T09:03:36.075Z,46.55
2018-12-14T09:06:05.076Z,46.97
2018-12-14T09:08:34.437Z,46.63
2018-12-14T09:11:03.466Z,46.96
2018-12-14T09:13:34.163Z,46.54
2018-12-14T09:16:03.510Z,46.83
2018-12-14T09:18:36.185Z,47.83
2018-12-14T09:21:05.134Z,48.11
2018-12-14T09:23:36.093Z,47.92
2018-12-14T09:26:05.544Z,47.55
2018-12-14T09:28:35.783Z,48.04
2018-12-14T09:31:04.635Z,47.86
2018-12-14T09:33:33.984Z,48.81
2018-12-14T09:36:04.422Z,48.50
2018-12-14T09:38:35.107Z,48.78
2018-12-14T09:41:04.741Z,48.34
2018-12-14T09:43:35.016Z,48.61
2018-12-14T09:46:04.598Z,49.02
2018-12-14T09:48:33.930Z,49.22
2018-12-14T09:51:05.468Z,49.00
2018-12-14T09:53:36.259Z,49.33
2018-12-14T09:56:07.196Z,48.73
2018-12-14T09:58:36.937Z,48.86
2018-12-14T10:01:07.311Z,49.44
2018-12-14T10:03:39.599Z,48.96
2018-12-14T10:06:15.526Z,49.12
2018-12-14T10:08:40.395Z,48.99
2018-12-14T10:11:14.121Z,49.02
2018-12-14T10:13:44.254Z,48.96
2018-12-14T10:16:16.286Z,48.93
2018-12-14T10:18:47.787Z,49.16
2018-12-14T10:21:19.116Z,48.89
2018-12-14T10:23:55.893Z,48.11
2018-12-14T10:26:29.534Z,48.71
2018-12-14T10:28:59.032Z,48.94
2018-12-14T10:31:38.300Z,48.50
2018-12-14T10:34:08.794Z,48.92
2018-12-14T10:36:38.005Z,48.89
2018-12-14T10:39:09.308Z,48.57
2018-12-14T10:41:39.507Z,48.85
2018-12-14T10:44:08.451Z,48.77
2018-12-14T10:46:38.442Z,48.86
2018-12-14T10:49:09.175Z,48.42
2018-12-14T10:51:42.635Z,48.56
2018-12-14T10:54:12.657Z,48.87
2018-12-14T10:56:42.895Z,48.57
2018-12-14T10:59:13.294Z,47.94
2018-12-14T11:01:47.567Z,48.97
2018-12-14T11:04:17.944Z,48.68
2018-12-14T11:06:49.572Z,48.60
2018-12-14T11:09:20.379Z,48.79
2018-12-14T11:11:50.914Z,48.85
2018-12-14T11:14:21.437Z,48.68
2018-12-14T11:16:50.521Z,48.26
2018-12-14T11:19:21.179Z,48.43
2018-12-14T11:21:56.440Z,48.96
2018-12-14T11:24:26.661Z,48.67
2018-12-14T11:26:56.438Z,48.77
2018-12-14T11:29:25.543Z,48.97
2018-12-14T11:31:54.637Z,48.84
2018-12-14T11:34:29.715Z,48.85
2018-12-14T11:36:57.544Z,49.02
2018-12-14T11:39:26.935Z,48.78
2018-12-14T11:41:55.670Z,48.20
2018-12-14T11:44:25.399Z,48.73
2018-12-14T11:46:54.385Z,48.66
2018-12-14T11:49:23.281Z,48.83
2018-12-14T11:51:52.304Z,48.33
2018-12-14T11:54:24.140Z,48.67
2018-12-14T11:56:54.209Z,48.58
2018-12-14T11:59:23.562Z,48.47
2018-12-14T12:01:52.366Z,48.72
2018-12-14T12:04:21.794Z,48.88
2018-12-14T12:06:51.318Z,48.74
2018-12-14T12:09:21.951Z,48.85
2018-12-14T12:11:50.722Z,49.00
2018-12-14T12:14:19.826Z,48.66
2018-12-14T12:16:48.659Z,48.39
2018-12-14T12:19:17.839Z,48.66
2018-12-14T12:21:49.954Z,48.55
2018-12-14T12:24:19.248Z,48.32
2018-12-14T12:26:48.455Z,48.68
2018-12-14T12:29:17.585Z,48.42
2018-12-14T12:31:48.218Z,48.67
2018-12-14T12:34:17.238Z,48.48
2018-12-14T12:36:46.714Z,48.72
2018-12-14T12:39:15.802Z,48.75
2018-12-14T12:41:44.742Z,48.37
2018-12-14T12:44:14.276Z,48.10
2018-12-14T12:46:43.211Z,48.48
2018-12-14T12:49:12.370Z,48.45
2018-12-14T12:51:42.190Z,48.24
2018-12-14T12:54:17.775Z,48.40
2018-12-14T12:56:47.134Z,48.46
2018-12-14T12:59:15.992Z,48.24
2018-12-14T13:01:45.257Z,47.97
2018-12-14T13:04:16.084Z,48.05
2018-12-14T13:06:47.451Z,48.06
2018-12-14T13:09:16.586Z,48.44
2018-12-14T13:11:45.501Z,48.31
2018-12-14T13:17:04.301Z,48.44
2018-12-14T13:19:35.094Z,48.23
2018-12-14T13:22:04.450Z,48.15
2018-12-14T13:24:33.853Z,48.41
2018-12-14T13:27:03.816Z,47.89
2018-12-14T13:29:33.354Z,48.19
2018-12-14T13:32:02.446Z,48.15
2018-12-14T13:34:31.563Z,48.09
2018-12-14T13:37:00.408Z,48.26
2018-12-14T13:39:29.815Z,47.98
2018-12-14T13:41:58.815Z,48.32
2018-12-14T13:44:28.153Z,47.45
2018-12-14T13:46:57.165Z,48.02
2018-12-14T13:49:26.338Z,47.94
2018-12-14T13:51:55.282Z,47.94
2018-12-14T13:54:25.078Z,48.47
2018-12-14T13:56:55.093Z,47.93
2018-12-14T13:59:24.282Z,47.93
2018-12-14T14:01:53.759Z,47.98
2018-12-14T14:04:22.654Z,48.26
2018-12-14T14:06:51.807Z,47.97
2018-12-14T14:09:21.350Z,47.83
2018-12-14T14:11:50.265Z,48.15
2018-12-14T14:14:22.048Z,47.15
2018-12-14T14:16:53.352Z,47.74
2018-12-14T14:19:24.131Z,47.61
2018-12-14T14:21:53.359Z,48.90
2018-12-14T14:24:22.773Z,48.17
2018-12-14T14:26:51.906Z,48.25
2018-12-14T14:29:22.625Z,47.90
2018-12-14T14:31:52.806Z,47.96
2018-12-14T14:34:21.789Z,48.06
2018-12-14T14:36:52.499Z,47.89
2018-12-14T14:39:21.375Z,48.17
2018-12-14T14:41:50.462Z,47.97
2018-12-14T14:44:19.694Z,48.22
2018-12-14T14:46:48.980Z,48.05
2018-12-14T14:49:17.859Z,48.02
2018-12-14T14:51:47.261Z,47.78
2018-12-14T14:54:16.803Z,47.97
2018-12-14T14:56:45.548Z,47.76
2018-12-14T14:59:14.555Z,48.27
2018-12-14T15:01:43.443Z,48.06
2018-12-14T15:04:12.189Z,48.78
2018-12-14T15:06:41.755Z,48.37
2018-12-14T15:09:12.166Z,47.71
2018-12-14T15:11:41.098Z,48.32
2018-12-14T15:14:10.250Z,47.79
2018-12-14T15:16:39.235Z,47.53
2018-12-14T15:19:09.169Z,46.42
2018-12-14T15:21:38.870Z,46.94
2018-12-14T15:24:08.213Z,46.80
2018-12-14T15:26:37.210Z,46.73
2018-12-14T15:29:06.635Z,47.63
2018-12-14T15:31:35.667Z,48.83
2018-12-14T15:34:04.690Z,47.30
2018-12-14T15:36:33.471Z,47.92
2018-12-14T15:39:02.203Z,47.66
2018-12-14T15:41:32.085Z,47.65
2018-12-14T15:44:00.845Z,48.13
2018-12-14T15:46:30.018Z,48.22
2018-12-14T15:48:58.767Z,47.97
2018-12-14T15:51:27.794Z,47.76
2018-12-14T15:53:56.738Z,46.03
2018-12-14T15:56:25.502Z,45.00
2018-12-14T15:58:54.986Z,45.22
2018-12-14T16:01:23.975Z,45.66
2018-12-14T16:03:53.154Z,44.62
2018-12-14T16:06:21.915Z,44.09
2018-12-14T16:08:50.801Z,46.61
2018-12-14T16:11:21.551Z,46.46
2018-12-14T16:13:51.238Z,45.07
2018-12-14T16:16:20.075Z,44.37
2018-12-14T16:18:49.218Z,45.09
2018-12-14T16:21:18.276Z,43.76
2018-12-14T16:23:48.088Z,42.82
2018-12-14T16:26:17.183Z,44.69
2018-12-14T16:28:46.268Z,45.46
2018-12-14T16:31:15.930Z,46.30
2018-12-14T16:33:45.431Z,45.65
2018-12-14T16:36:14.374Z,45.56
2018-12-14T16:38:44.326Z,44.91
2018-12-14T16:41:14.169Z,45.17
2018-12-14T16:43:42.915Z,43.81
2018-12-14T16:46:12.591Z,44.06
2018-12-14T16:48:43.099Z,44.74
2018-12-14T16:54:44.430Z,42.33
2018-12-14T16:57:13.330Z,43.90
2018-12-14T16:59:42.822Z,42.71
2018-12-14T17:02:12.390Z,43.33
2018-12-14T17:04:42.002Z,43.85
2018-12-14T17:07:12.042Z,43.79
2018-12-14T17:09:42.100Z,43.59
2018-12-14T17:12:11.314Z,43.37
2018-12-14T17:14:40.780Z,43.01
2018-12-14T17:17:09.851Z,43.34
2018-12-14T17:19:39.030Z,42.56
2018-12-14T17:22:09.027Z,43.08
2018-12-14T17:24:41.301Z,42.82
2018-12-14T17:27:10.626Z,42.33
2018-12-14T17:29:41.858Z,43.12
2018-12-14T17:32:12.017Z,42.77
2018-12-14T17:34:41.192Z,42.66
2018-12-14T17:37:10.548Z,42.25
2018-12-14T17:39:40.469Z,42.03
2018-12-14T17:42:09.731Z,41.17
2018-12-14T17:44:39.926Z,42.36
2018-12-14T17:47:09.918Z,42.36
2018-12-14T17:49:39.348Z,41.91
2018-12-14T17:52:15.610Z,42.17
2018-12-14T17:54:45.870Z,41.53
2018-12-14T17:57:15.084Z,41.86
2018-12-14T17:59:45.608Z,41.93
2018-12-14T18:02:15.228Z,41.79
2018-12-14T18:04:44.711Z,41.82
2018-12-14T18:07:14.422Z,41.96
2018-12-14T18:09:45.134Z,41.63
2018-12-14T18:12:14.448Z,40.79
2018-12-14T18:14:43.335Z,41.49
2018-12-14T18:17:12.209Z,41.09
2018-12-14T18:19:44.185Z,40.78
2018-12-14T18:22:15.496Z,41.03
2018-12-14T18:24:44.642Z,41.01
2018-12-14T18:27:17.133Z,41.66
2018-12-14T18:29:47.587Z,40.99
2018-12-14T18:32:17.362Z,41.13
2018-12-14T18:34:47.134Z,41.19
2018-12-14T18:37:24.377Z,41.16
2018-12-14T18:39:54.280Z,40.23
2018-12-14T18:42:26.948Z,40.87
2018-12-14T18:45:01.084Z,41.00
2018-12-14T18:48:32.968Z,40.77
2018-12-14T18:51:01.721Z,40.73
2018-12-14T18:53:30.770Z,40.89
2018-12-14T18:56:00.222Z,40.93
2018-12-14T18:58:30.373Z,40.39
2018-12-14T19:01:01.395Z,40.69
2018-12-14T19:03:32.372Z,40.60
2018-12-14T19:06:01.620Z,40.52
2018-12-14T19:08:31.094Z,40.44
2018-12-14T19:11:00.302Z,40.21
2018-12-14T19:13:29.146Z,40.36
2018-12-14T19:15:59.765Z,40.16
2018-12-14T19:18:29.175Z,39.72
2018-12-14T19:20:58.044Z,40.00
2018-12-14T19:23:27.095Z,39.92
2018-12-14T19:25:56.571Z,40.38
2018-12-14T19:28:26.485Z,39.65
2018-12-14T19:30:55.433Z,40.14
2018-12-14T19:33:24.854Z,39.58
2018-12-14T19:35:54.221Z,40.12
2018-12-14T19:38:24.090Z,39.84
2018-12-14T19:40:53.676Z,39.87
2018-12-14T19:43:22.637Z,39.95
2018-12-14T19:45:51.880Z,39.84
2018-12-14T19:48:22.759Z,39.85
2018-12-14T19:50:51.638Z,40.44
2018-12-14T19:53:20.797Z,38.93
2018-12-14T19:55:51.312Z,39.99
2018-12-14T19:58:21.154Z,39.26
2018-12-14T20:00:55.033Z,39.79
2018-12-14T20:03:23.947Z,39.91
2018-12-14T20:05:53.464Z,40.23
2018-12-14T20:08:22.395Z,40.08
2018-12-14T20:10:51.185Z,39.72
2018-12-14T20:13:23.030Z,40.18
2018-12-14T20:15:57.522Z,39.67
2018-12-14T20:18:23.657Z,39.59
2018-12-14T20:20:53.649Z,39.97
2018-12-14T20:23:23.481Z,40.03
2018-12-14T20:25:53.080Z,40.08
2018-12-14T20:28:22.340Z,39.19
2018-12-14T20:30:51.704Z,39.63
2018-12-14T20:33:20.850Z,39.57
2018-12-14T20:35:51.168Z,38.93
2018-12-14T20:38:20.337Z,39.32
2018-12-14T20:40:50.206Z,39.55
2018-12-14T20:43:20.429Z,40.04
2018-12-14T20:45:50.146Z,39.76
2018-12-14T20:48:19.790Z,40.15
2018-12-14T20:50:50.056Z,39.71
2018-12-14T20:53:19.387Z,39.60
2018-12-14T20:55:49.077Z,39.38
2018-12-14T20:58:20.612Z,39.67
2018-12-14T21:00:50.638Z,39.78
2018-12-14T21:03:19.967Z,39.75
2018-12-14T21:05:48.772Z,39.66
2018-12-14T21:08:18.126Z,37.51
2018-12-14T21:10:49.093Z,39.56
2018-12-14T21:13:22.043Z,39.48
2018-12-14T21:15:53.830Z,39.51
2018-12-14T21:18:23.883Z,37.85
2018-12-14T21:20:56.232Z,39.08
2018-12-14T21:23:27.115Z,38.61
2018-12-14T21:26:02.097Z,38.30
2018-12-14T21:28:31.567Z,37.68
2018-12-14T21:31:03.580Z,37.92
2018-12-14T21:33:33.654Z,38.24
2018-12-14T21:36:03.288Z,37.95
2018-12-14T21:38:33.372Z,38.34
2018-12-14T21:41:04.001Z,37.19
2018-12-14T21:43:34.912Z,37.48
2018-12-14T21:46:06.076Z,38.57
2018-12-14T21:48:36.455Z,38.51
2018-12-14T21:51:07.081Z,39.33
2018-12-14T21:53:37.549Z,39.69
2018-12-14T21:56:06.897Z,39.21
2018-12-14T21:58:36.716Z,39.81
2018-12-14T22:01:05.463Z,39.05
2018-12-14T22:03:34.196Z,39.78
2018-12-14T22:06:04.387Z,39.39
2018-12-14T22:08:33.368Z,39.62
2018-12-14T22:11:02.461Z,39.48
2018-12-14T22:13:31.588Z,39.93
2018-12-14T22:16:01.862Z,39.88
2018-12-14T22:18:31.844Z,40.37
2018-12-14T22:21:01.830Z,40.08
2018-12-14T22:23:31.278Z,40.90
2018-12-14T22:26:00.348Z,40.83
2018-12-14T22:28:30.876Z,40.53
2018-12-14T22:31:00.633Z,40.63
2018-12-14T22:33:29.630Z,40.69
2018-12-14T22:35:58.473Z,41.38
2018-12-14T22:38:27.909Z,40.67
2018-12-14T22:40:56.824Z,40.99
2018-12-14T22:43:26.636Z,40.82
2018-12-14T22:45:56.778Z,41.02
2018-12-14T22:48:27.817Z,40.81
2018-12-14T22:50:58.390Z,41.31
2018-12-14T22:53:28.272Z,41.37
2018-12-14T22:55:57.156Z,41.75
2018-12-14T22:58:29.764Z,40.76
2018-12-14T23:00:59.494Z,41.80
2018-12-14T23:03:29.703Z,41.71
2018-12-14T23:06:01.420Z,41.93
2018-12-14T23:08:30.386Z,41.94
2018-12-14T23:11:01.196Z,41.65
2018-12-14T23:13:31.414Z,41.70
2018-12-14T23:16:00.917Z,41.83
2018-12-14T23:18:30.096Z,42.34
2018-12-14T23:20:59.805Z,41.86
2018-12-14T23:23:28.915Z,42.46
2018-12-14T23:25:57.741Z,42.54
2018-12-14T23:28:26.900Z,42.36
2018-12-14T23:30:55.851Z,42.35
2018-12-14T23:33:25.450Z,42.11
2018-12-14T23:35:54.820Z,41.97
2018-12-14T23:38:23.776Z,42.17
2018-12-14T23:40:53.158Z,42.02
2018-12-14T23:43:37.787Z,41.73
2018-12-14T23:48:46.516Z,42.37
2018-12-14T23:51:16.194Z,42.61
2018-12-14T23:53:45.392Z,42.47
2018-12-14T23:56:14.312Z,41.87
2018-12-14T23:58:43.446Z,42.56
